createdAt,value
2018-05-16T00:00:32.134Z,13.62
2018-05-16T00:03:00.212Z,13.62
2018-05-16T00:05:28.285Z,13.56
2018-05-16T00:07:57.632Z,13.51
2018-05-16T00:10:25.733Z,13.50
2018-05-16T00:12:53.819Z,13.50
2018-05-16T00:15:21.903Z,13.55
2018-05-16T00:17:49.947Z,13.53
2018-05-16T00:20:18.808Z,13.61
2018-05-16T00:22:46.895Z,13.59
2018-05-16T00:25:14.982Z,13.60
2018-05-16T00:27:43.039Z,13.58
2018-05-16T00:30:11.649Z,13.55
2018-05-16T00:32:41.650Z,13.55
2018-05-16T00:35:09.722Z,13.56
2018-05-16T00:37:37.828Z,13.58
2018-05-16T00:40:05.908Z,13.63
2018-05-16T00:42:33.956Z,13.65
2018-05-16T00:45:02.098Z,13.68
2018-05-16T00:47:30.150Z,13.71
2018-05-16T00:49:58.221Z,13.71
2018-05-16T00:52:26.337Z,13.79
2018-05-16T00:54:54.413Z,13.82
2018-05-16T00:57:22.783Z,13.75
2018-05-16T00:59:50.868Z,13.79
2018-05-16T01:02:18.919Z,13.79
2018-05-16T01:04:46.990Z,13.84
2018-05-16T01:07:15.381Z,13.75
2018-05-16T01:09:43.752Z,13.66
2018-05-16T01:12:11.820Z,13.62
2018-05-16T01:14:40.225Z,13.67
2018-05-16T01:17:08.277Z,13.74
2018-05-16T01:19:37.857Z,13.73
2018-05-16T01:22:05.969Z,13.73
2018-05-16T01:24:34.052Z,13.77
2018-05-16T01:27:02.889Z,13.81
2018-05-16T01:29:31.391Z,13.82
2018-05-16T01:31:59.463Z,13.81
2018-05-16T01:34:27.560Z,13.79
2018-05-16T01:36:55.933Z,13.74
2018-05-16T01:39:24.769Z,13.78
2018-05-16T01:41:53.149Z,13.80
2018-05-16T01:44:21.221Z,13.77
2018-05-16T01:46:49.490Z,13.78
2018-05-16T01:49:17.570Z,13.65
2018-05-16T01:51:46.084Z,13.62
2018-05-16T01:54:14.162Z,13.63
2018-05-16T01:56:42.236Z,13.67
2018-05-16T01:59:10.328Z,13.70
2018-05-16T02:01:39.177Z,13.73
2018-05-16T02:04:07.249Z,13.76
2018-05-16T02:06:35.334Z,13.76
2018-05-16T02:09:03.412Z,13.66
2018-05-16T02:11:31.848Z,13.62
2018-05-16T02:14:00.285Z,13.58
2018-05-16T02:16:29.141Z,13.58
2018-05-16T02:18:57.245Z,13.50
2018-05-16T02:21:25.593Z,13.49
2018-05-16T02:23:53.730Z,13.46
2018-05-16T02:26:22.585Z,13.47
2018-05-16T02:28:50.673Z,13.36
2018-05-16T02:31:19.521Z,13.44
2018-05-16T02:33:47.602Z,13.43
2018-05-16T02:36:15.894Z,13.44
2018-05-16T02:38:43.937Z,13.06
2018-05-16T02:41:12.041Z,13.14
2018-05-16T02:43:40.109Z,13.13
2018-05-16T02:46:08.949Z,13.04
2018-05-16T02:48:37.047Z,12.94
2018-05-16T02:51:05.409Z,12.85
2018-05-16T02:53:33.521Z,12.80
2018-05-16T02:56:01.595Z,12.81
2018-05-16T02:58:31.570Z,12.85
2018-05-16T03:00:59.940Z,12.89
2018-05-16T03:03:28.009Z,12.86
2018-05-16T03:05:56.135Z,12.80
2018-05-16T03:08:24.995Z,12.75
2018-05-16T03:10:53.057Z,12.70
2018-05-16T03:13:21.325Z,12.72
2018-05-16T03:15:49.400Z,12.76
2018-05-16T03:18:17.513Z,12.79
2018-05-16T03:20:46.669Z,12.79
2018-05-16T03:23:14.740Z,12.79
2018-05-16T03:25:42.809Z,12.78
2018-05-16T03:28:10.881Z,12.82
2018-05-16T03:30:38.999Z,12.83
2018-05-16T03:33:07.072Z,12.82
2018-05-16T03:35:36.212Z,12.85
2018-05-16T03:38:04.513Z,12.87
2018-05-16T03:40:32.619Z,12.87
2018-05-16T03:43:01.494Z,12.87
2018-05-16T03:45:29.544Z,12.87
2018-05-16T03:47:57.609Z,12.91
2018-05-16T03:50:25.880Z,12.85
2018-05-16T03:52:53.995Z,12.85
2018-05-16T03:55:22.857Z,12.83
2018-05-16T03:57:51.005Z,12.86
2018-05-16T04:00:19.071Z,12.92
2018-05-16T04:02:47.252Z,12.96
2018-05-16T04:05:15.668Z,12.94
2018-05-16T04:07:43.721Z,12.95
2018-05-16T04:10:11.781Z,12.92
2018-05-16T04:12:40.160Z,12.91
2018-05-16T04:15:08.449Z,12.95
2018-05-16T04:17:36.548Z,12.96
2018-05-16T04:20:05.128Z,12.98
2018-05-16T04:22:33.835Z,12.98
2018-05-16T04:25:02.682Z,13.01
2018-05-16T04:27:30.741Z,13.01
2018-05-16T04:29:58.825Z,13.03
2018-05-16T04:32:27.509Z,12.99
2018-05-16T04:34:55.622Z,13.04
2018-05-16T04:37:24.449Z,13.06
2018-05-16T04:39:52.849Z,13.06
2018-05-16T04:42:20.925Z,13.03
2018-05-16T04:44:48.981Z,13.01
2018-05-16T04:47:17.460Z,13.00
2018-05-16T04:49:45.560Z,13.01
2018-05-16T04:52:14.426Z,13.04
2018-05-16T04:54:42.813Z,13.04
2018-05-16T04:57:10.876Z,12.99
2018-05-16T04:59:38.973Z,13.03
2018-05-16T05:02:08.865Z,13.03
2018-05-16T05:04:36.936Z,13.04
2018-05-16T05:07:05.001Z,13.07
2018-05-16T05:09:33.388Z,13.12
2018-05-16T05:12:01.453Z,13.13
2018-05-16T05:14:29.532Z,13.18
2018-05-16T05:16:58.013Z,13.20
2018-05-16T05:19:26.089Z,13.21
2018-05-16T05:21:54.145Z,13.21
2018-05-16T05:24:23.448Z,13.20
2018-05-16T05:26:52.277Z,13.24
2018-05-16T05:29:21.772Z,13.28
2018-05-16T05:31:50.536Z,13.30
2018-05-16T05:34:19.653Z,13.30
2018-05-16T05:36:48.615Z,13.33
2018-05-16T05:39:17.641Z,13.33
2018-05-16T05:41:46.223Z,13.38
2018-05-16T05:44:15.085Z,13.42
2018-05-16T05:46:44.733Z,13.48
2018-05-16T05:49:14.428Z,13.49
2018-05-16T05:51:43.137Z,13.50
2018-05-16T05:54:12.848Z,13.50
2018-05-16T05:56:42.236Z,13.57
2018-05-16T05:59:10.993Z,13.64
2018-05-16T06:01:40.090Z,13.65
2018-05-16T06:04:09.002Z,13.70
2018-05-16T06:06:37.913Z,13.68
2018-05-16T06:09:05.999Z,13.79
2018-05-16T06:11:35.586Z,13.86
2018-05-16T06:14:04.170Z,13.92
2018-05-16T06:16:33.948Z,13.90
2018-05-16T06:19:02.053Z,13.95
2018-05-16T06:21:31.645Z,13.99
2018-05-16T06:23:59.720Z,14.08
2018-05-16T06:26:27.784Z,14.16
2018-05-16T06:28:55.862Z,14.28
2018-05-16T06:31:24.334Z,14.45
2018-05-16T06:33:53.015Z,14.60
2018-05-16T06:36:22.466Z,14.80
2018-05-16T06:38:51.233Z,15.04
2018-05-16T06:41:21.355Z,15.26
2018-05-16T06:43:50.539Z,15.40
2018-05-16T06:46:19.661Z,15.36
2018-05-16T06:48:50.073Z,15.27
2018-05-16T06:51:19.782Z,15.31
2018-05-16T06:53:49.142Z,15.18
2018-05-16T06:56:17.224Z,15.03
2018-05-16T06:58:46.348Z,15.15
2018-05-16T07:01:14.425Z,15.19
2018-05-16T07:03:43.273Z,15.36
2018-05-16T07:06:11.902Z,15.48
2018-05-16T07:08:41.585Z,15.60
2018-05-16T07:11:10.258Z,15.69
2018-05-16T07:13:38.406Z,15.43
2018-05-16T07:16:07.994Z,15.10
2018-05-16T07:18:36.966Z,14.69
2018-05-16T07:21:06.623Z,14.72
2018-05-16T07:23:34.691Z,14.62
2018-05-16T07:26:02.826Z,14.77
2018-05-16T07:28:32.289Z,14.99
2018-05-16T07:31:01.421Z,15.37
2018-05-16T07:33:30.181Z,15.88
2018-05-16T07:35:59.007Z,16.04
2018-05-16T07:38:29.218Z,16.68
2018-05-16T07:40:58.885Z,16.29
2018-05-16T07:43:27.609Z,16.71
2018-05-16T07:45:56.661Z,16.81
2018-05-16T07:48:25.579Z,16.40
2018-05-16T07:50:54.460Z,16.43
2018-05-16T07:53:23.287Z,16.27
2018-05-16T07:55:53.177Z,17.12
2018-05-16T07:58:21.980Z,16.74
2018-05-16T08:00:50.027Z,16.60
2018-05-16T08:03:18.659Z,16.51
2018-05-16T08:05:48.450Z,16.25
2018-05-16T08:08:17.497Z,16.36
2018-05-16T08:10:49.171Z,15.62
2018-05-16T08:13:18.168Z,15.76
2018-05-16T08:15:47.584Z,15.77
2018-05-16T08:18:16.332Z,15.86
2018-05-16T08:20:44.397Z,16.84
2018-05-16T08:23:13.002Z,18.98
2018-05-16T08:25:41.804Z,20.61
2018-05-16T08:28:11.666Z,21.73
2018-05-16T08:30:40.731Z,21.77
2018-05-16T08:33:09.544Z,20.87
2018-05-16T08:35:38.353Z,20.76
2018-05-16T08:38:08.102Z,20.24
2018-05-16T08:40:37.444Z,19.14
2018-05-16T08:43:06.512Z,18.26
2018-05-16T08:45:35.399Z,17.06
2018-05-16T08:48:05.062Z,16.79
2018-05-16T08:50:34.099Z,16.92
2018-05-16T08:53:03.842Z,16.39
2018-05-16T08:55:32.497Z,16.70
2018-05-16T08:58:02.287Z,16.62
2018-05-16T09:00:31.246Z,16.62
2018-05-16T09:02:59.353Z,16.96
2018-05-16T09:05:28.838Z,17.08
2018-05-16T09:07:56.914Z,17.53
2018-05-16T09:10:25.934Z,18.98
2018-05-16T09:12:55.242Z,21.14
2018-05-16T09:15:24.118Z,21.68
2018-05-16T09:17:52.265Z,21.21
2018-05-16T09:20:20.973Z,19.89
2018-05-16T09:22:49.588Z,19.26
2018-05-16T09:25:18.597Z,18.43
2018-05-16T09:27:47.949Z,18.29
2018-05-16T09:30:16.815Z,17.51
2018-05-16T09:32:45.789Z,17.53
2018-05-16T09:35:14.430Z,17.82
2018-05-16T09:37:44.476Z,18.02
2018-05-16T09:40:13.113Z,18.08
2018-05-16T09:42:41.932Z,18.27
2018-05-16T09:45:12.359Z,18.35
2018-05-16T09:47:40.561Z,19.12
2018-05-16T09:50:10.097Z,20.11
2018-05-16T09:52:38.208Z,21.11
2018-05-16T09:55:07.454Z,22.07
2018-05-16T09:57:36.476Z,22.19
2018-05-16T10:00:05.898Z,21.75
2018-05-16T10:02:34.625Z,20.80
2018-05-16T10:05:02.757Z,19.74
2018-05-16T10:07:32.828Z,19.10
2018-05-16T10:10:00.933Z,18.34
2018-05-16T10:12:29.808Z,18.10
2018-05-16T10:28:00.453Z,19.51
2018-05-16T10:30:30.563Z,19.92
2018-05-16T10:32:59.511Z,19.82
2018-05-16T10:35:28.237Z,20.50
2018-05-16T10:37:56.373Z,19.10
2018-05-16T10:40:26.029Z,19.78
2018-05-16T10:42:55.887Z,19.68
2018-05-16T10:45:25.009Z,19.97
2018-05-16T10:47:53.934Z,19.92
2018-05-16T10:50:23.887Z,19.22
2018-05-16T10:52:52.514Z,19.82
2018-05-16T10:55:20.591Z,19.86
2018-05-16T10:57:48.648Z,19.76
2018-05-16T11:00:18.681Z,21.02
2018-05-16T11:02:47.441Z,21.63
2018-05-16T11:05:16.331Z,21.85
2018-05-16T11:07:45.128Z,22.74
2018-05-16T11:10:14.253Z,21.70
2018-05-16T11:12:44.141Z,22.17
2018-05-16T11:15:13.206Z,22.13
2018-05-16T11:17:41.285Z,23.35
2018-05-16T11:20:09.397Z,25.03
2018-05-16T11:22:38.341Z,26.10
2018-05-16T11:25:07.414Z,25.01
2018-05-16T11:27:36.265Z,24.78
2018-05-16T11:30:05.577Z,23.92
2018-05-16T11:32:35.960Z,22.80
2018-05-16T11:35:04.868Z,22.08
2018-05-16T11:37:33.459Z,22.11
2018-05-16T11:40:02.247Z,22.37
2018-05-16T11:42:31.133Z,22.73
2018-05-16T11:44:59.125Z,23.02
2018-05-16T11:47:27.213Z,22.21
2018-05-16T11:49:55.667Z,20.45
2018-05-16T11:52:23.745Z,20.12
2018-05-16T11:54:53.341Z,21.37
2018-05-16T11:57:22.051Z,21.97
2018-05-16T11:59:51.813Z,23.23
2018-05-16T12:02:20.616Z,24.98
2018-05-16T12:04:49.423Z,24.94
2018-05-16T12:07:19.013Z,24.35
2018-05-16T12:09:47.826Z,25.88
2018-05-16T12:12:16.617Z,26.22
2018-05-16T12:14:44.716Z,27.86
2018-05-16T12:17:14.422Z,26.35
2018-05-16T12:19:43.820Z,23.92
2018-05-16T12:22:12.595Z,22.18
2018-05-16T12:24:41.442Z,22.72
2018-05-16T12:27:10.169Z,22.51
2018-05-16T12:29:40.947Z,22.63
2018-05-16T12:32:09.869Z,23.37
2018-05-16T12:34:38.962Z,23.95
2018-05-16T12:37:08.466Z,22.99
2018-05-16T12:39:37.085Z,22.49
2018-05-16T12:42:06.041Z,24.15
2018-05-16T12:44:34.916Z,24.67
2018-05-16T12:47:03.038Z,25.69
2018-05-16T12:49:31.911Z,24.63
2018-05-16T12:52:00.719Z,25.01
2018-05-16T12:54:30.274Z,25.44
2018-05-16T12:56:58.879Z,26.34
2018-05-16T12:59:26.949Z,26.41
2018-05-16T13:01:56.729Z,24.12
2018-05-16T13:04:25.347Z,24.38
2018-05-16T13:06:53.419Z,24.15
2018-05-16T13:09:23.112Z,23.61
2018-05-16T13:11:51.801Z,24.51
2018-05-16T13:14:20.427Z,24.75
2018-05-16T13:16:50.541Z,26.94
2018-05-16T13:19:20.228Z,27.03
2018-05-16T13:21:48.885Z,24.25
2018-05-16T13:24:17.697Z,25.37
2018-05-16T13:26:47.356Z,25.43
2018-05-16T13:29:16.328Z,24.64
2018-05-16T13:31:45.930Z,23.96
2018-05-16T13:34:15.739Z,23.56
2018-05-16T13:36:44.585Z,24.20
2018-05-16T13:39:13.466Z,25.60
2018-05-16T13:41:42.861Z,24.26
2018-05-16T13:44:11.843Z,24.97
2018-05-16T13:46:40.707Z,26.88
2018-05-16T13:49:09.457Z,26.49
2018-05-16T13:51:38.588Z,26.88
2018-05-16T13:54:07.421Z,26.88
2018-05-16T13:56:35.551Z,26.57
2018-05-16T13:59:05.021Z,25.41
2018-05-16T14:01:33.178Z,24.61
2018-05-16T14:04:01.913Z,23.48
2018-05-16T14:06:30.703Z,22.53
2018-05-16T14:08:59.390Z,23.23
2018-05-16T14:11:28.248Z,23.23
2018-05-16T14:13:56.325Z,24.44
2018-05-16T14:16:25.341Z,25.29
2018-05-16T14:18:54.016Z,26.56
2018-05-16T14:21:23.023Z,26.57
2018-05-16T14:23:52.515Z,26.20
2018-05-16T14:26:22.021Z,25.82
2018-05-16T14:28:50.786Z,26.04
2018-05-16T14:31:18.902Z,24.04
2018-05-16T14:33:47.769Z,24.58
2018-05-16T14:36:16.139Z,23.91
2018-05-16T14:38:44.241Z,22.99
2018-05-16T14:41:13.441Z,23.35
2018-05-16T14:43:43.050Z,23.60
2018-05-16T14:46:11.879Z,23.83
2018-05-16T14:48:39.997Z,23.51
2018-05-16T14:51:09.613Z,23.40
2018-05-16T14:53:38.501Z,22.74
2018-05-16T14:56:08.113Z,23.10
2018-05-16T14:58:37.917Z,22.74
2018-05-16T15:01:05.965Z,23.06
2018-05-16T15:03:34.061Z,22.97
2018-05-16T15:06:04.240Z,22.74
2018-05-16T15:08:32.926Z,22.94
2018-05-16T15:11:02.881Z,22.78
2018-05-16T15:13:31.758Z,22.95
2018-05-16T15:16:01.161Z,23.01
2018-05-16T15:18:29.741Z,23.18
2018-05-16T15:20:58.433Z,22.79
2018-05-16T15:23:27.517Z,22.41
2018-05-16T15:25:56.385Z,22.75
2018-05-16T15:28:25.428Z,23.03
2018-05-16T15:30:54.749Z,22.64
2018-05-16T15:33:24.211Z,22.40
2018-05-16T15:35:52.896Z,22.44
2018-05-16T15:38:21.850Z,22.18
2018-05-16T15:40:50.497Z,21.99
2018-05-16T15:43:19.836Z,21.71
2018-05-16T15:45:47.940Z,21.82
2018-05-16T15:48:16.009Z,21.67
2018-05-16T15:50:44.404Z,21.73
2018-05-16T15:53:13.265Z,21.58
2018-05-16T15:55:42.197Z,21.68
2018-05-16T15:58:11.164Z,21.68
2018-05-16T16:00:39.236Z,21.28
2018-05-16T16:03:07.309Z,21.34
2018-05-16T16:05:35.696Z,21.35
2018-05-16T16:08:04.661Z,21.00
2018-05-16T16:10:32.658Z,21.07
2018-05-16T16:13:00.745Z,21.23
2018-05-16T16:15:29.616Z,21.07
2018-05-16T16:17:58.672Z,21.04
2018-05-16T16:20:26.784Z,21.11
2018-05-16T16:22:54.857Z,20.97
2018-05-16T16:25:25.109Z,20.74
2018-05-16T16:27:53.981Z,20.76
2018-05-16T16:30:22.050Z,20.62
2018-05-16T16:32:50.741Z,20.51
2018-05-16T16:35:18.804Z,20.52
2018-05-16T16:37:46.889Z,20.55
2018-05-16T16:40:15.937Z,20.38
2018-05-16T16:42:44.665Z,20.39
2018-05-16T16:45:13.621Z,20.39
2018-05-16T16:47:41.731Z,20.30
2018-05-16T16:50:09.853Z,20.19
2018-05-16T16:52:37.901Z,20.28
2018-05-16T16:55:05.958Z,20.15
2018-05-16T16:57:35.865Z,19.83
2018-05-16T17:00:04.746Z,19.33
2018-05-16T17:02:32.821Z,19.47
2018-05-16T17:05:01.158Z,18.94
2018-05-16T17:07:29.232Z,19.29
2018-05-16T17:09:57.325Z,19.25
2018-05-16T17:12:25.724Z,19.37
2018-05-16T17:14:53.761Z,19.39
2018-05-16T17:17:21.850Z,19.39
2018-05-16T17:19:50.841Z,19.36
2018-05-16T17:22:20.949Z,19.31
2018-05-16T17:24:49.005Z,19.15
2018-05-16T17:27:17.929Z,19.12
2018-05-16T17:29:46.036Z,18.97
2018-05-16T17:32:14.916Z,18.95
2018-05-16T17:34:43.763Z,18.77
2018-05-16T17:37:11.850Z,18.73
2018-05-16T17:39:39.921Z,18.58
2018-05-16T17:42:08.020Z,18.51
2018-05-16T17:44:36.873Z,18.34
2018-05-16T17:47:04.969Z,18.19
2018-05-16T17:49:33.211Z,18.27
2018-05-16T17:52:01.703Z,18.28
2018-05-16T17:54:31.462Z,18.31
2018-05-16T17:57:01.137Z,18.31
2018-05-16T17:59:29.192Z,18.28
2018-05-16T18:01:58.113Z,18.27
2018-05-16T18:04:26.962Z,18.21
2018-05-16T18:06:55.969Z,18.16
2018-05-16T18:09:24.033Z,18.12
2018-05-16T18:11:53.030Z,18.07
2018-05-16T18:14:21.814Z,18.02
2018-05-16T18:16:50.680Z,18.00
2018-05-16T18:19:19.505Z,17.89
2018-05-16T18:21:47.593Z,17.84
2018-05-16T18:24:16.470Z,17.74
2018-05-16T18:26:44.840Z,17.62
2018-05-16T18:29:12.923Z,17.63
2018-05-16T18:31:40.984Z,17.43
2018-05-16T18:34:09.090Z,17.31
2018-05-16T18:36:37.194Z,17.34
2018-05-16T18:39:05.265Z,17.09
2018-05-16T18:41:33.909Z,17.20
2018-05-16T18:44:02.789Z,17.19
2018-05-16T18:46:31.764Z,17.22
2018-05-16T18:49:00.351Z,17.28
2018-05-16T18:51:28.436Z,17.30
2018-05-16T18:53:56.521Z,17.30
2018-05-16T18:56:25.413Z,17.30
2018-05-16T18:58:55.216Z,17.14
2018-05-16T19:01:24.070Z,17.15
2018-05-16T19:03:52.158Z,16.96
2018-05-16T19:06:20.246Z,16.92
2018-05-16T19:08:49.103Z,16.83
2018-05-16T19:11:17.113Z,16.76
2018-05-16T19:13:46.493Z,16.68
2018-05-16T19:16:14.561Z,16.60
2018-05-16T19:18:44.505Z,16.52
2018-05-16T19:21:13.395Z,16.32
2018-05-16T19:23:42.293Z,16.26
2018-05-16T19:26:11.173Z,16.15
2018-05-16T19:28:39.226Z,16.09
2018-05-16T19:31:07.282Z,15.93
2018-05-16T19:33:35.373Z,15.82
2018-05-16T19:36:05.157Z,15.72
2018-05-16T19:38:33.268Z,15.64
2018-05-16T19:41:01.388Z,15.55
2018-05-16T19:43:30.224Z,15.47
2018-05-16T19:45:58.301Z,15.43
2018-05-16T19:48:26.381Z,15.39
2018-05-16T19:50:55.473Z,15.40
2018-05-16T19:53:24.320Z,15.31
2018-05-16T19:55:52.941Z,15.25
2018-05-16T19:58:21.033Z,15.18
2018-05-16T20:00:49.868Z,15.14
2018-05-16T20:03:18.327Z,15.10
2018-05-16T20:05:46.359Z,15.12
2018-05-16T20:08:15.188Z,15.08
2018-05-16T20:10:43.622Z,15.07
2018-05-16T20:13:12.410Z,15.13
2018-05-16T20:15:40.457Z,15.19
2018-05-16T20:18:08.561Z,15.18
2018-05-16T20:20:38.249Z,15.21
2018-05-16T20:23:06.308Z,15.21
2018-05-16T20:25:34.385Z,15.22
2018-05-16T20:28:02.481Z,15.22
2018-05-16T20:30:30.537Z,15.27
2018-05-16T20:32:58.598Z,15.28
2018-05-16T20:35:26.977Z,15.26
2018-05-16T20:37:55.057Z,15.18
2018-05-16T20:40:23.131Z,15.19
2018-05-16T20:42:51.608Z,15.14
2018-05-16T20:45:19.717Z,15.13
2018-05-16T20:47:48.543Z,15.17
2018-05-16T20:50:16.952Z,15.11
2018-05-16T20:52:45.038Z,15.13
2018-05-16T20:55:13.115Z,15.08
2018-05-16T20:57:41.965Z,15.06
2018-05-16T21:00:10.069Z,15.02
2018-05-16T21:02:38.150Z,15.01
2018-05-16T21:05:07.461Z,15.07
2018-05-16T21:07:35.521Z,15.01
2018-05-16T21:10:04.477Z,14.93
2018-05-16T21:12:32.569Z,14.92
2018-05-16T21:15:00.616Z,14.89
2018-05-16T21:17:28.717Z,14.80
2018-05-16T21:19:57.112Z,14.78
2018-05-16T21:22:25.397Z,14.69
2018-05-16T21:24:54.533Z,14.65
2018-05-16T21:27:22.612Z,14.56
2018-05-16T21:29:50.703Z,14.44
2018-05-16T21:32:19.957Z,14.43
2018-05-16T21:34:48.056Z,14.38
2018-05-16T21:37:16.106Z,14.37
2018-05-16T21:39:44.440Z,14.35
2018-05-16T21:42:13.293Z,14.32
2018-05-16T21:44:41.369Z,14.33
2018-05-16T21:47:09.832Z,14.28
2018-05-16T21:49:38.006Z,14.33
2018-05-16T21:52:06.062Z,14.31
2018-05-16T21:54:35.040Z,14.28
2018-05-16T21:57:03.860Z,14.27
2018-05-16T21:59:31.945Z,14.29
2018-05-16T22:02:00.337Z,14.31
2018-05-16T22:04:28.388Z,14.32
2018-05-16T22:06:56.460Z,14.29
2018-05-16T22:09:24.837Z,14.31
2018-05-16T22:11:52.913Z,14.29
2018-05-16T22:14:21.293Z,14.22
2018-05-16T22:16:49.673Z,14.17
2018-05-16T22:19:17.736Z,14.09
2018-05-16T22:21:45.816Z,14.04
2018-05-16T22:24:14.197Z,13.90
2018-05-16T22:26:42.369Z,13.79
2018-05-16T22:29:10.425Z,13.69
2018-05-16T22:31:38.832Z,13.73
2018-05-16T22:34:06.917Z,13.68
2018-05-16T22:36:34.964Z,13.61
2018-05-16T22:39:04.072Z,13.57
2018-05-16T22:41:32.158Z,13.49
2018-05-16T22:44:00.201Z,13.44
2018-05-16T22:46:28.273Z,13.41
2018-05-16T22:48:56.357Z,13.38
2018-05-16T22:51:24.421Z,13.31
2018-05-16T22:53:52.493Z,13.29
2018-05-16T22:56:20.568Z,13.28
2018-05-16T22:58:48.645Z,13.26
2018-05-16T23:01:16.737Z,13.30
2018-05-16T23:03:45.986Z,13.34
2018-05-16T23:06:14.072Z,13.33
2018-05-16T23:08:42.169Z,13.36
2018-05-16T23:11:11.065Z,13.42
2018-05-16T23:13:40.732Z,13.44
2018-05-16T23:16:09.211Z,13.48
2018-05-16T23:18:38.037Z,13.47
2018-05-16T23:21:06.121Z,13.51
2018-05-16T23:23:35.317Z,13.56
2018-05-16T23:26:04.153Z,13.56
2018-05-16T23:28:32.424Z,13.58
2018-05-16T23:31:00.562Z,13.59
2018-05-16T23:33:29.416Z,13.61
2018-05-16T23:35:57.514Z,13.65
2018-05-16T23:38:26.047Z,13.74
2018-05-16T23:40:54.115Z,13.75
2018-05-16T23:43:22.213Z,13.75
2018-05-16T23:45:50.593Z,13.76
2018-05-16T23:48:18.694Z,13.63
2018-05-16T23:50:47.577Z,13.67
2018-05-16T23:53:16.465Z,13.75
2018-05-16T23:55:45.309Z,13.81
2018-05-16T23:58:13.433Z,13.84
